createdAt,value
2018-11-02T00:00:18.334Z,86
2018-11-02T00:05:17.621Z,85.7
2018-11-02T00:10:17.654Z,84.9
2018-11-02T00:15:17.648Z,84.2
2018-11-02T00:20:17.582Z,84.1
2018-11-02T00:25:17.604Z,84.5
2018-11-02T00:30:17.616Z,86
2018-11-02T00:35:17.630Z,86.2
2018-11-02T00:40:17.628Z,88.4
2018-11-02T00:45:28.488Z,87
2018-11-02T00:50:28.281Z,87
2018-11-02T00:55:28.230Z,87.1
2018-11-02T01:00:28.220Z,88.8
2018-11-02T01:05:28.223Z,88
2018-11-02T01:10:28.244Z,88
2018-11-02T01:15:28.346Z,87.2
2018-11-02T01:20:28.225Z,87.4
2018-11-02T01:25:28.237Z,88.1
2018-11-02T01:30:40.014Z,90
2018-11-02T01:35:39.709Z,90.9
2018-11-02T01:40:39.730Z,89.9
2018-11-02T01:45:39.735Z,90
2018-11-02T01:50:39.736Z,89.6
2018-11-02T01:55:39.951Z,89.8
2018-11-02T02:00:39.756Z,91.6
2018-11-02T02:05:39.745Z,92.3
2018-11-02T02:10:40.190Z,90.8
2018-11-02T02:15:51.834Z,93.8
2018-11-02T02:20:51.563Z,94.7
2018-11-02T02:25:51.546Z,93.7
2018-11-02T02:30:51.578Z,93.3
2018-11-02T02:35:51.575Z,93.1
2018-11-02T02:40:51.704Z,92.1
2018-11-02T02:45:51.564Z,92.3
2018-11-02T02:50:51.776Z,93.3
2018-11-02T02:55:51.785Z,92.9
2018-11-02T03:01:04.444Z,94
2018-11-02T03:06:04.332Z,94.2
2018-11-02T03:11:04.784Z,93.4
2018-11-02T03:16:04.841Z,92.8
2018-11-02T03:21:04.368Z,94.2
2018-11-02T03:26:04.666Z,94.4
2018-11-02T03:31:04.384Z,94.2
2018-11-02T03:36:04.428Z,93.7
2018-11-02T03:41:04.216Z,93.8
2018-11-02T03:46:16.579Z,93.3
2018-11-02T03:51:16.339Z,94.1
2018-11-02T03:56:16.385Z,95
2018-11-02T04:01:16.313Z,94
2018-11-02T04:06:16.385Z,93.6
2018-11-02T04:11:16.251Z,94.2
2018-11-02T04:16:16.345Z,94.2
2018-11-02T04:21:20.966Z,95.6
2018-11-02T04:26:20.035Z,95.8
2018-11-02T04:31:32.855Z,95.3
2018-11-02T04:36:32.315Z,96.7
2018-11-02T04:41:32.720Z,97.3
2018-11-02T04:46:32.413Z,96.2
2018-11-02T04:51:32.395Z,96.1
2018-11-02T04:56:32.206Z,95.1
2018-11-02T05:01:32.210Z,95.4
2018-11-02T05:06:32.625Z,94.9
2018-11-02T05:11:35.704Z,96.1
2018-11-02T05:16:45.127Z,96.5
2018-11-02T05:21:45.074Z,95.9
2018-11-02T05:26:44.934Z,96
2018-11-02T05:31:44.972Z,96.4
2018-11-02T05:36:44.825Z,96.4
2018-11-02T05:41:46.099Z,96.4
2018-11-02T05:46:46.020Z,96.6
2018-11-02T05:51:48.160Z,96.4
2018-11-02T05:56:48.031Z,96.4
2018-11-02T06:02:00.852Z,95.6
2018-11-02T06:07:00.558Z,95.2
2018-11-02T06:12:00.593Z,95.7
2018-11-02T06:17:00.974Z,96.1
2018-11-02T06:22:00.578Z,96.1
2018-11-02T06:27:00.710Z,95.9
2018-11-02T06:32:00.757Z,96
2018-11-02T06:37:01.290Z,96.4
2018-11-02T06:42:01.007Z,96.9
2018-11-02T06:47:13.564Z,96.8
2018-11-02T06:52:13.299Z,96.3
2018-11-02T06:57:13.301Z,96.9
2018-11-02T07:02:13.918Z,95.9
2018-11-02T07:07:13.801Z,96.4
2018-11-02T07:12:13.567Z,95.3
2018-11-02T07:17:13.400Z,95.4
2018-11-02T07:22:15.539Z,95.5
2018-11-02T07:27:15.528Z,94.9
2018-11-02T07:32:28.628Z,93.8
2018-11-02T07:37:28.352Z,92.4
2018-11-02T07:42:28.361Z,100
2018-11-02T07:47:28.523Z,100
2018-11-02T07:52:28.390Z,93.9
2018-11-02T07:57:28.368Z,93.5
2018-11-02T08:02:28.381Z,95.8
2018-11-02T08:07:28.374Z,93.8
2018-11-02T08:12:28.393Z,95.8
2018-11-02T08:17:39.620Z,92.8
2018-11-02T08:22:39.216Z,91.1
2018-11-02T10:25:54.586Z,62.4
2018-11-02T10:30:54.610Z,67.6
2018-11-02T10:35:54.699Z,70.4
2018-11-02T10:40:54.602Z,72.2
2018-11-02T10:46:04.276Z,71.9
2018-11-02T10:51:03.693Z,71.6
2018-11-02T10:56:03.576Z,72.3
2018-11-02T11:01:04.081Z,73
2018-11-02T11:06:03.592Z,72.8
2018-11-02T11:11:03.580Z,72.6
2018-11-02T11:16:03.608Z,70.9
2018-11-02T11:21:05.193Z,72
2018-11-02T11:26:04.840Z,71.4
2018-11-02T11:31:14.949Z,71.7
2018-11-02T11:36:14.702Z,71.9
2018-11-02T11:41:14.679Z,72.8
2018-11-02T11:46:14.684Z,74.1
2018-11-02T11:51:14.839Z,72.6
2018-11-02T11:56:14.898Z,73.6
2018-11-02T12:01:14.816Z,73.4
2018-11-02T12:06:16.609Z,74.9
2018-11-02T12:11:16.329Z,74.9
2018-11-02T12:16:28.386Z,73.5
2018-11-02T12:21:28.114Z,74.5
2018-11-02T12:26:28.112Z,75.2
2018-11-02T12:31:28.107Z,77.2
2018-11-02T12:36:28.140Z,75
2018-11-02T12:41:28.114Z,75.5
2018-11-02T12:46:28.169Z,78.5
2018-11-02T12:51:28.602Z,75.3
2018-11-02T12:56:28.335Z,75.2
2018-11-02T13:01:40.459Z,75.8
2018-11-02T13:06:40.161Z,75.4
2018-11-02T13:11:40.171Z,74.5
2018-11-02T13:16:40.163Z,75.1
2018-11-02T13:21:40.756Z,75
2018-11-02T13:26:40.615Z,75.3
2018-11-02T13:31:40.616Z,77.2
2018-11-02T13:36:41.372Z,77.3
2018-11-02T13:41:40.628Z,79.2
2018-11-02T13:46:52.649Z,79.4
2018-11-02T13:51:52.370Z,79.2
2018-11-02T13:56:52.377Z,79.1
2018-11-02T14:01:52.662Z,80
2018-11-02T14:06:52.393Z,81.3
2018-11-02T14:11:53.833Z,82.9
2018-11-02T14:16:52.399Z,82.9
2018-11-02T14:21:54.441Z,83
2018-11-02T14:26:53.858Z,83.1
2018-11-02T14:32:07.701Z,83.8
2018-11-02T14:37:07.249Z,82.8
2018-11-02T14:42:07.271Z,83.1
2018-11-02T14:47:07.267Z,83
2018-11-02T14:52:07.287Z,83.3
2018-11-02T14:57:07.308Z,83.7
2018-11-02T15:02:07.296Z,83.9
2018-11-02T15:07:07.313Z,83.7
2018-11-02T15:12:07.279Z,83.7
2018-11-02T15:17:19.428Z,84.4
2018-11-02T15:22:19.082Z,84.7
2018-11-02T15:27:19.111Z,84.3
2018-11-02T15:32:19.324Z,85.9
2018-11-02T15:37:19.217Z,85.3
2018-11-02T15:42:19.195Z,85.3
2018-11-02T15:47:19.151Z,86.7
2018-11-02T15:52:19.286Z,85.8
2018-11-02T15:57:19.290Z,87.2
2018-11-02T16:02:32.187Z,86.4
2018-11-02T16:07:31.896Z,87.8
2018-11-02T16:12:31.909Z,86.9
2018-11-02T16:17:31.921Z,86.6
2018-11-02T16:22:32.139Z,86.3
2018-11-02T16:27:32.144Z,87.3
2018-11-02T16:32:32.173Z,87.2
2018-11-02T16:37:35.072Z,86.8
2018-11-02T16:42:34.810Z,87.9
2018-11-02T16:47:47.110Z,87.9
2018-11-02T16:52:46.761Z,88.3
2018-11-02T16:57:47.266Z,87.9
2018-11-02T17:02:47.002Z,87.8
2018-11-02T17:07:46.731Z,86.8
2018-11-02T17:12:46.750Z,88.6
2018-11-02T17:17:46.761Z,89.9
2018-11-02T17:22:46.802Z,90.5
2018-11-02T17:27:46.754Z,91.8
2018-11-02T17:32:59.382Z,91.8
2018-11-02T17:37:59.038Z,92.6
2018-11-02T17:42:59.089Z,91.7
2018-11-02T17:47:59.117Z,93.4
2018-11-02T17:52:59.109Z,93.3
2018-11-02T17:57:59.090Z,93.1
2018-11-02T18:02:59.209Z,94.6
2018-11-02T18:07:59.128Z,93.5
2018-11-02T18:12:59.095Z,94.1
2018-11-02T18:18:10.541Z,94.2
2018-11-02T18:23:10.255Z,94.5
2018-11-02T18:28:10.305Z,94.3
2018-11-02T18:33:10.227Z,94.8
2018-11-02T18:38:10.426Z,94.2
2018-11-02T18:43:10.496Z,94.2
2018-11-02T18:48:10.431Z,93.9
2018-11-02T18:53:10.236Z,94.7
2018-11-02T18:58:10.719Z,94.4
2018-11-02T19:03:22.150Z,95.1
2018-11-02T19:08:22.002Z,94.7
2018-11-02T19:13:22.556Z,95.4
2018-11-02T19:18:22.456Z,95.1
2018-11-02T19:23:25.223Z,95.1
2018-11-02T19:28:22.499Z,95.4
2018-11-02T19:33:22.478Z,96.1
2018-11-02T19:38:22.440Z,96.9
2018-11-02T19:43:22.128Z,98.1
2018-11-02T19:48:30.552Z,98.4
2018-11-02T19:53:30.471Z,98.5
2018-11-02T19:58:30.499Z,99.2
2018-11-02T20:03:30.245Z,98.5
2018-11-02T20:08:30.376Z,98.6
2018-11-02T20:13:30.232Z,98.2
2018-11-02T20:18:30.240Z,98.2
2018-11-02T20:23:31.176Z,99.7
2018-11-02T20:28:31.080Z,100
2018-11-02T20:33:45.116Z,100
2018-11-02T20:38:45.258Z,99.9
2018-11-02T20:43:45.723Z,100
2018-11-02T20:48:45.190Z,99.7
2018-11-02T20:53:44.874Z,100
2018-11-02T20:58:45.631Z,99.5
2018-11-02T21:03:45.194Z,99.5
2018-11-02T21:08:45.941Z,98.6
2018-11-02T21:13:45.256Z,99.6
2018-11-02T21:18:57.978Z,99.5
2018-11-02T21:23:58.015Z,99
2018-11-02T21:28:58.194Z,99.3
2018-11-02T21:33:58.191Z,99.7
2018-11-02T21:38:57.661Z,99.3
2018-11-02T21:43:57.881Z,100
2018-11-02T21:48:57.714Z,100
2018-11-02T21:53:58.212Z,100
2018-11-02T21:58:58.097Z,100
2018-11-02T22:04:10.358Z,100
2018-11-02T22:09:10.017Z,100
2018-11-02T22:14:10.170Z,100
2018-11-02T22:19:10.397Z,100
2018-11-02T22:24:10.015Z,100
2018-11-02T22:29:10.175Z,100
2018-11-02T22:34:10.020Z,100
2018-11-02T22:39:10.024Z,100
2018-11-02T22:44:10.030Z,100
2018-11-02T22:49:22.885Z,100
2018-11-02T22:54:22.625Z,100
2018-11-02T22:59:22.612Z,100
2018-11-02T23:04:22.622Z,100
2018-11-02T23:09:22.617Z,100
2018-11-02T23:14:22.630Z,100
2018-11-02T23:19:22.935Z,100
2018-11-02T23:24:22.627Z,100
2018-11-02T23:29:22.747Z,100
2018-11-02T23:34:34.201Z,100
2018-11-02T23:39:34.113Z,100
2018-11-02T23:44:33.921Z,100
2018-11-02T23:49:33.950Z,100
2018-11-02T23:54:34.106Z,100
2018-11-02T23:59:33.945Z,100
